Time;durP1;ratioP1;P1;durP2;ratioP2;P2;SDS_P1;SDS_P2;PMS_P1;PMS_P2;Temp;Humidity;BMP_temperature;BMP_pressure;BME280_temperature;BME280_humidity;BME280_pressure;Samples;Min_cycle;Max_cycle;Signal;HPM_P1;HPM_P2
2022/04/12 00:00:18;;;;;;;8.00;5.80;;;14.10;46.20;;;;;;5076008;28;20453;-70
2022/04/12 00:02:45;;;;;;;7.27;5.40;;;14.00;46.10;;;;;;5075875;28;20465;-70
2022/04/12 00:05:12;;;;;;;9.87;6.27;;;14.00;46.30;;;;;;5075894;28;20455;-70
2022/04/12 00:07:40;;;;;;;6.10;5.23;;;14.00;46.40;;;;;;5075753;28;20497;-70
2022/04/12 00:10:09;;;;;;;5.53;4.70;;;14.00;45.90;;;;;;5075823;28;20511;-70
2022/04/12 00:12:37;;;;;;;5.73;4.87;;;14.00;46.10;;;;;;5075771;28;20476;-70
2022/04/12 00:15:06;;;;;;;8.10;6.20;;;13.90;46.60;;;;;;5075926;28;20452;-70
2022/04/12 00:20:18;;;;;;;6.53;5.70;;;13.90;47.00;;;;;;5075389;28;20486;-70
2022/04/12 00:22:45;;;;;;;7.13;4.80;;;13.90;46.80;;;;;;5074981;28;20511;-69
2022/04/12 00:25:14;;;;;;;6.63;5.10;;;13.90;47.00;;;;;;5075221;28;20966;-70
2022/04/12 00:27:42;;;;;;;6.57;4.70;;;13.80;46.90;;;;;;5075247;28;20476;-70
2022/04/12 00:30:11;;;;;;;7.40;5.00;;;13.80;47.40;;;;;;5075194;28;20653;-70
2022/04/12 00:32:39;;;;;;;7.13;4.50;;;13.80;47.20;;;;;;5075596;28;20469;-69
2022/04/12 00:35:07;;;;;;;8.00;5.13;;;13.80;47.40;;;;;;5075402;28;20455;-70
2022/04/12 00:37:34;;;;;;;9.60;4.83;;;13.80;47.70;;;;;;5075227;28;20476;-69
2022/04/12 00:40:01;;;;;;;5.63;5.00;;;13.80;47.50;;;;;;5075173;28;20459;-70
2022/04/12 00:42:29;;;;;;;4.47;4.03;;;13.80;47.30;;;;;;5075085;28;20465;-70
2022/04/12 00:44:56;;;;;;;6.03;4.10;;;13.80;46.70;;;;;;5075045;28;20456;-70
2022/04/12 00:47:24;;;;;;;4.67;3.40;;;13.70;46.80;;;;;;5074858;28;20503;-70
2022/04/12 00:49:51;;;;;;;4.97;4.13;;;13.70;47.10;;;;;;5075004;28;20459;-69
2022/04/12 00:52:18;;;;;;;6.43;3.60;;;13.70;47.10;;;;;;5075412;28;20480;-68
2022/04/12 00:54:47;;;;;;;5.27;4.00;;;13.70;47.10;;;;;;5079124;28;20452;-68
2022/04/12 00:57:14;;;;;;;4.70;3.87;;;13.70;47.30;;;;;;5079539;28;20449;-68
2022/04/12 00:59:45;;;;;;;5.90;4.23;;;13.70;47.50;;;;;;5078548;28;20452;-68
2022/04/12 01:02:12;;;;;;;4.80;3.90;;;13.60;46.90;;;;;;5078838;28;20465;-69
2022/04/12 01:04:39;;;;;;;6.20;3.90;;;13.60;47.00;;;;;;5078830;28;20452;-68
2022/04/12 01:07:06;;;;;;;4.67;4.27;;;13.60;47.50;;;;;;5078835;28;20484;-68
2022/04/12 01:09:33;;;;;;;6.23;3.90;;;13.60;47.40;;;;;;5079021;28;21008;-68
2022/04/12 01:12:08;;;;;;;6.43;4.20;;;13.60;47.70;;;;;;5079390;28;20472;-68
2022/04/12 01:14:35;;;;;;;5.70;3.87;;;13.50;47.70;;;;;;5078717;28;20951;-68
2022/04/12 01:17:06;;;;;;;7.80;4.67;;;13.40;47.50;;;;;;5079443;28;20960;-68
2022/04/12 01:19:33;;;;;;;5.43;3.67;;;13.40;47.70;;;;;;5078388;28;20956;-68
2022/04/12 01:22:03;;;;;;;5.77;4.60;;;13.40;47.80;;;;;;5078395;28;20468;-68
2022/04/12 01:24:33;;;;;;;4.73;4.23;;;13.40;48.60;;;;;;5078679;28;20433;-68
2022/04/12 01:27:00;;;;;;;6.73;4.07;;;13.50;48.10;;;;;;5078220;28;20895;-68
2022/04/12 01:29:31;;;;;;;4.83;4.37;;;13.40;47.80;;;;;;5078221;28;20974;-68
2022/04/12 01:31:58;;;;;;;4.27;3.60;;;13.30;47.70;;;;;;5077583;28;20476;-68
2022/04/12 01:34:25;;;;;;;5.90;4.10;;;13.30;48.20;;;;;;5077230;28;20479;-69
2022/04/12 01:36:52;;;;;;;7.90;4.77;;;13.30;48.80;;;;;;5078388;28;20445;-69
2022/04/12 01:39:18;;;;;;;4.67;3.77;;;13.30;48.80;;;;;;5078114;28;20452;-69
2022/04/12 01:41:46;;;;;;;7.00;4.43;;;13.30;48.80;;;;;;5077910;28;20491;-68
2022/04/12 01:44:13;;;;;;;9.10;5.03;;;13.30;49.00;;;;;;5078373;28;20458;-68
2022/04/12 01:46:40;;;;;;;6.53;4.97;;;13.30;48.90;;;;;;5077938;28;20483;-69
2022/04/12 01:49:06;;;;;;;8.97;5.77;;;13.30;48.90;;;;;;5078121;28;20951;-68
2022/04/12 01:51:33;;;;;;;5.20;4.43;;;13.30;49.20;;;;;;5078094;28;20465;-68
2022/04/12 01:54:00;;;;;;;7.33;5.67;;;13.30;49.10;;;;;;5077763;28;20445;-68
2022/04/12 01:56:28;;;;;;;5.77;4.93;;;13.40;49.50;;;;;;5076908;28;20479;-70
2022/04/12 01:58:56;;;;;;;6.00;4.80;;;13.40;49.30;;;;;;5077078;28;20452;-69
2022/04/12 02:01:23;;;;;;;5.47;4.60;;;13.40;49.50;;;;;;5077438;28;20821;-69
2022/04/12 02:03:49;;;;;;;6.10;4.60;;;13.40;49.40;;;;;;5077920;28;20458;-70
2022/04/12 02:06:16;;;;;;;4.80;4.00;;;13.40;49.30;;;;;;5077784;28;20452;-69
2022/04/12 02:08:43;;;;;;;5.07;4.40;;;13.40;49.30;;;;;;5077450;28;20518;-69
2022/04/12 02:11:10;;;;;;;5.17;4.67;;;13.40;49.00;;;;;;5077767;28;20460;-69
2022/04/12 02:13:37;;;;;;;4.53;4.13;;;13.30;49.30;;;;;;5077500;28;20823;-69
2022/04/12 02:16:06;;;;;;;7.30;4.07;;;13.30;49.10;;;;;;5077103;28;20460;-69
2022/04/12 02:18:33;;;;;;;6.43;4.37;;;13.30;49.20;;;;;;5077327;28;20452;-69
2022/04/12 02:20:59;;;;;;;4.73;4.23;;;13.30;49.50;;;;;;5077151;28;20472;-68
2022/04/12 02:23:26;;;;;;;6.47;4.37;;;13.30;49.30;;;;;;5077272;28;20448;-68
2022/04/12 02:25:53;;;;;;;6.23;4.20;;;13.30;49.20;;;;;;5077082;28;20932;-68
2022/04/12 02:28:20;;;;;;;4.87;3.70;;;13.30;49.40;;;;;;5077493;28;20499;-68
2022/04/12 02:30:46;;;;;;;5.57;4.50;;;13.30;49.80;;;;;;5075985;28;20827;-68
2022/04/12 02:33:14;;;;;;;5.57;3.77;;;13.30;49.60;;;;;;5075604;28;20444;-69
2022/04/12 02:35:41;;;;;;;7.83;4.27;;;13.30;49.80;;;;;;5075009;28;20452;-69
2022/04/12 02:38:08;;;;;;;5.93;4.13;;;13.30;49.90;;;;;;5075182;28;20441;-69
2022/04/12 02:40:34;;;;;;;6.10;4.00;;;13.30;49.90;;;;;;5076417;28;20507;-69
2022/04/12 02:43:01;;;;;;;4.60;4.07;;;13.30;50.00;;;;;;5076664;28;20456;-68
2022/04/12 02:45:28;;;;;;;5.40;4.30;;;13.30;49.80;;;;;;5076612;28;20955;-68
2022/04/12 02:47:54;;;;;;;7.70;5.00;;;13.30;49.80;;;;;;5079911;28;20586;-68
2022/04/12 02:50:23;;;;;;;6.70;4.63;;;13.30;49.60;;;;;;5081529;28;20451;-68
2022/04/12 02:52:50;;;;;;;5.80;4.73;;;13.20;48.70;;;;;;5081042;28;20503;-68
2022/04/12 02:55:16;;;;;;;6.90;5.00;;;13.20;49.10;;;;;;5081693;28;20519;-67
2022/04/12 02:57:43;;;;;;;4.97;4.43;;;13.10;49.30;;;;;;5080864;28;20445;-68
2022/04/12 03:00:10;;;;;;;4.93;4.30;;;13.00;49.80;;;;;;5081839;28;20861;-68
2022/04/12 03:02:37;;;;;;;11.20;4.80;;;13.00;49.90;;;;;;5081171;28;20460;-68
2022/04/12 03:05:04;;;;;;;7.37;4.90;;;13.00;50.10;;;;;;5081451;28;20866;-68
2022/04/12 03:07:32;;;;;;;4.63;4.10;;;13.00;50.00;;;;;;5081241;28;20551;-68
2022/04/12 03:09:59;;;;;;;5.37;4.80;;;13.00;50.10;;;;;;5080518;28;20456;-69
2022/04/12 03:12:26;;;;;;;6.17;4.27;;;13.00;50.60;;;;;;5080907;28;20472;-69
2022/04/12 03:14:52;;;;;;;6.60;4.30;;;13.10;50.80;;;;;;5080755;28;20858;-68
2022/04/12 03:17:20;;;;;;;4.30;3.90;;;13.10;50.70;;;;;;5080885;28;20509;-69
2022/04/12 03:19:47;;;;;;;4.80;4.27;;;13.10;50.70;;;;;;5080916;28;20464;-68
2022/04/12 03:22:14;;;;;;;5.30;4.47;;;13.10;50.60;;;;;;5080505;28;20476;-69
2022/04/12 03:24:43;;;;;;;5.13;3.63;;;13.10;51.00;;;;;;5080740;28;20456;-69
2022/04/12 03:27:10;;;;;;;5.70;4.07;;;13.10;50.50;;;;;;5080880;28;20488;-68
2022/04/12 03:29:36;;;;;;;6.40;4.30;;;13.20;50.80;;;;;;5080449;28;20452;-69
2022/04/12 03:32:04;;;;;;;4.63;4.20;;;13.20;51.10;;;;;;5079569;28;20881;-69
2022/04/12 03:34:31;;;;;;;7.37;5.17;;;13.10;51.20;;;;;;5080101;28;20455;-69
2022/04/12 03:36:58;;;;;;;5.13;3.97;;;13.10;51.40;;;;;;5080009;28;20851;-68
2022/04/12 03:39:25;;;;;;;5.10;4.60;;;13.10;51.50;;;;;;5079957;28;20456;-68
2022/04/12 03:41:53;;;;;;;6.10;4.93;;;13.10;51.70;;;;;;5079581;28;20464;-69
2022/04/12 03:44:20;;;;;;;5.83;4.43;;;13.10;51.80;;;;;;5078199;28;20463;-69
2022/04/12 03:46:47;;;;;;;8.60;5.40;;;13.10;51.90;;;;;;5076470;28;20456;-70
2022/04/12 03:49:14;;;;;;;5.00;4.33;;;13.10;52.00;;;;;;5076366;28;20448;-70
2022/04/12 03:51:40;;;;;;;6.47;4.30;;;13.10;51.90;;;;;;5075812;28;20468;-70
2022/04/12 03:54:07;;;;;;;6.33;5.00;;;13.10;51.90;;;;;;5075946;28;20459;-70
2022/04/12 03:56:34;;;;;;;6.60;4.57;;;13.00;51.80;;;;;;5075966;28;20449;-70
2022/04/12 03:59:03;;;;;;;5.93;5.00;;;13.00;51.80;;;;;;5075077;28;21081;-70
2022/04/12 04:01:29;;;;;;;7.23;4.30;;;13.00;51.30;;;;;;5075972;28;20512;-70
2022/04/12 04:03:56;;;;;;;7.33;5.10;;;13.00;51.30;;;;;;5076074;28;20445;-70
2022/04/12 04:06:23;;;;;;;6.27;4.77;;;12.90;51.50;;;;;;5075886;28;20467;-70
2022/04/12 04:08:50;;;;;;;5.53;4.60;;;12.90;51.90;;;;;;5075882;28;20832;-70
2022/04/12 04:11:16;;;;;;;5.00;4.20;;;12.90;52.00;;;;;;5075643;28;20465;-70
2022/04/12 04:13:43;;;;;;;5.03;4.53;;;12.90;52.10;;;;;;5075526;28;20940;-70
2022/04/12 04:16:11;;;;;;;6.07;4.60;;;12.90;52.30;;;;;;5075621;28;20448;-70
2022/04/12 04:18:39;;;;;;;8.73;5.33;;;12.80;52.40;;;;;;5075534;28;20449;-70
2022/04/12 04:21:06;;;;;;;7.73;6.07;;;12.80;52.40;;;;;;5075660;28;20499;-70
2022/04/12 04:23:33;;;;;;;6.33;4.57;;;12.80;51.90;;;;;;5076068;28;20452;-70
2022/04/12 04:26:00;;;;;;;5.97;4.50;;;12.80;51.60;;;;;;5075574;28;20451;-70
2022/04/12 04:28:29;;;;;;;5.23;4.73;;;12.70;51.80;;;;;;5075399;28;20488;-70
2022/04/12 04:30:57;;;;;;;5.73;4.37;;;12.80;52.20;;;;;;5075311;28;20479;-70
2022/04/12 04:33:25;;;;;;;5.70;4.40;;;12.70;52.40;;;;;;5075398;28;20449;-70
2022/04/12 04:35:52;;;;;;;5.53;5.00;;;12.70;52.40;;;;;;5075422;28;20547;-70
2022/04/12 04:38:19;;;;;;;6.40;4.57;;;12.60;52.30;;;;;;5074939;28;20440;-70
2022/04/12 04:40:46;;;;;;;5.33;4.53;;;12.70;52.60;;;;;;5075227;28;20451;-70
2022/04/12 04:43:13;;;;;;;5.20;4.20;;;12.60;52.60;;;;;;5074909;28;20955;-70
2022/04/12 04:45:42;;;;;;;6.97;5.40;;;12.60;52.80;;;;;;5075723;28;20572;-70
2022/04/12 04:48:09;;;;;;;4.73;4.27;;;12.60;52.90;;;;;;5075042;28;20991;-70
2022/04/12 04:50:38;;;;;;;6.47;4.47;;;12.60;52.90;;;;;;5075323;28;20459;-70
2022/04/12 04:53:06;;;;;;;4.20;3.80;;;12.60;53.00;;;;;;5075012;28;20463;-70
2022/04/12 04:55:35;;;;;;;6.43;4.33;;;12.60;53.20;;;;;;5075088;28;20449;-70
2022/04/12 04:58:02;;;;;;;7.27;4.87;;;12.50;53.10;;;;;;5074798;28;20433;-70
2022/04/12 05:00:32;;;;;;;6.10;4.27;;;12.50;53.10;;;;;;5074813;28;20445;-70
2022/04/12 05:02:59;;;;;;;6.20;4.70;;;12.50;53.30;;;;;;5074745;28;20528;-70
2022/04/12 05:05:27;;;;;;;10.50;5.13;;;12.40;53.40;;;;;;5074527;28;20455;-70
2022/04/12 05:07:57;;;;;;;5.03;4.40;;;12.40;53.40;;;;;;5074685;28;20480;-70
2022/04/12 05:10:28;;;;;;;5.90;4.47;;;12.40;53.80;;;;;;5074039;28;20453;-70
2022/04/12 05:12:56;;;;;;;5.90;4.97;;;12.40;54.10;;;;;;5074373;28;20912;-70
2022/04/12 05:15:23;;;;;;;7.00;5.47;;;12.40;54.40;;;;;;5074657;28;20476;-70
2022/04/12 05:17:51;;;;;;;7.33;5.93;;;12.30;54.40;;;;;;5074309;28;20940;-70
2022/04/12 05:20:19;;;;;;;5.77;5.13;;;12.40;54.40;;;;;;5074033;28;20495;-70
2022/04/12 05:22:46;;;;;;;8.67;5.90;;;12.30;54.50;;;;;;5074294;28;20468;-70
2022/04/12 05:25:14;;;;;;;7.80;5.47;;;12.40;54.80;;;;;;5074369;28;20456;-70
2022/04/12 05:27:43;;;;;;;7.50;5.30;;;12.30;54.80;;;;;;5073866;28;21010;-70
2022/04/12 05:30:12;;;;;;;7.80;5.73;;;12.40;55.00;;;;;;5074366;28;20449;-70
2022/04/12 05:32:40;;;;;;;7.80;6.00;;;12.40;55.10;;;;;;5073680;28;20851;-70
2022/04/12 05:35:08;;;;;;;8.00;5.70;;;12.40;55.20;;;;;;5073885;28;20970;-70
2022/04/12 05:37:42;;;;;;;6.53;5.80;;;12.30;55.40;;;;;;5074123;28;20806;-70
2022/04/12 05:40:10;;;;;;;8.03;5.60;;;12.40;55.40;;;;;;5074157;28;20444;-70
2022/04/12 05:42:39;;;;;;;6.03;5.03;;;12.40;55.40;;;;;;5073981;28;20500;-70
2022/04/12 05:45:07;;;;;;;10.10;5.50;;;12.40;55.60;;;;;;5074520;28;20943;-70
2022/04/12 05:47:49;;;;;;;9.33;5.30;;;12.40;55.50;;;;;;5074283;28;20492;-70
2022/04/12 05:50:17;;;;;;;7.70;4.83;;;12.50;55.60;;;;;;5073867;28;20468;-70
2022/04/12 05:52:44;;;;;;;6.87;5.17;;;12.50;55.70;;;;;;5074054;28;20468;-70
2022/04/12 05:55:15;;;;;;;6.80;4.67;;;12.50;55.70;;;;;;5073689;28;20452;-70
2022/04/12 05:57:50;;;;;;;5.53;4.20;;;12.50;55.70;;;;;;5074081;28;20441;-70
2022/04/12 06:00:18;;;;;;;7.37;5.03;;;12.60;55.90;;;;;;5075400;28;20440;-70
2022/04/12 06:02:45;;;;;;;5.97;4.50;;;12.60;55.70;;;;;;5074602;28;20563;-70
2022/04/12 06:05:13;;;;;;;6.07;4.87;;;12.70;55.80;;;;;;5073761;28;20452;-70
2022/04/12 06:07:40;;;;;;;7.00;5.20;;;12.70;55.80;;;;;;5073639;28;20565;-70
2022/04/12 06:10:08;;;;;;;5.43;4.43;;;12.70;55.70;;;;;;5073505;28;20940;-70
2022/04/12 06:12:35;;;;;;;6.80;5.60;;;12.80;55.80;;;;;;5073670;28;20468;-70
2022/04/12 06:15:04;;;;;;;6.23;4.70;;;12.80;55.70;;;;;;5073508;28;20456;-70
2022/04/12 06:17:32;;;;;;;7.03;4.60;;;12.80;55.50;;;;;;5073484;28;20455;-70
2022/04/12 06:20:04;;;;;;;6.30;4.77;;;12.90;55.60;;;;;;5073025;28;20464;-70
2022/04/12 06:22:31;;;;;;;6.63;4.50;;;13.00;55.60;;;;;;5073423;28;20888;-70
2022/04/12 06:24:58;;;;;;;6.33;4.30;;;13.00;54.90;;;;;;5073478;28;20457;-70
2022/04/12 06:27:32;;;;;;;4.90;4.40;;;13.10;55.20;;;;;;5073151;28;20955;-70
2022/04/12 06:29:59;;;;;;;6.60;5.03;;;13.10;55.30;;;;;;5073427;28;20452;-70
2022/04/12 06:32:27;;;;;;;5.13;4.27;;;13.20;55.10;;;;;;5073109;28;20875;-70
2022/04/12 06:34:55;;;;;;;4.50;4.03;;;13.30;55.00;;;;;;5073881;28;20498;-70
2022/04/12 06:37:25;;;;;;;7.90;4.47;;;13.30;54.90;;;;;;5073647;28;20951;-70
2022/04/12 06:39:52;;;;;;;6.30;4.40;;;13.40;54.80;;;;;;5074963;28;20470;-70
2022/04/12 06:42:18;;;;;;;5.80;4.50;;;13.40;54.10;;;;;;5073655;28;20476;-70
2022/04/12 06:44:45;;;;;;;5.63;4.27;;;13.50;54.40;;;;;;5073513;28;20456;-70
2022/04/12 06:47:12;;;;;;;6.67;4.33;;;13.50;54.50;;;;;;5073317;28;20460;-70
2022/04/12 06:49:43;;;;;;;16.90;5.40;;;13.50;54.20;;;;;;5073290;28;20567;-70
2022/04/12 06:52:09;;;;;;;5.30;4.30;;;13.60;54.30;;;;;;5073045;28;20468;-70
2022/04/12 06:54:36;;;;;;;5.27;4.50;;;13.60;54.50;;;;;;5073176;28;20519;-70
2022/04/12 06:57:03;;;;;;;4.70;3.70;;;13.70;54.50;;;;;;5072992;28;20498;-70
2022/04/12 06:59:30;;;;;;;4.30;3.53;;;13.70;54.40;;;;;;5073356;28;20448;-70
2022/04/12 07:01:57;;;;;;;3.83;3.53;;;13.80;54.30;;;;;;5072682;28;21070;-69
2022/04/12 07:04:24;;;;;;;6.40;4.93;;;13.90;54.10;;;;;;5072722;28;20448;-69
2022/04/12 07:06:52;;;;;;;4.80;4.30;;;14.00;53.80;;;;;;5072930;28;20444;-70
2022/04/12 07:09:20;;;;;;;5.50;4.30;;;14.10;53.80;;;;;;5073040;28;20480;-70
2022/04/12 07:11:47;;;;;;;4.77;3.97;;;14.20;53.60;;;;;;5072783;28;20477;-71
2022/04/12 07:14:14;;;;;;;5.33;4.50;;;14.40;53.50;;;;;;5072887;28;20464;-70
2022/04/12 07:16:41;;;;;;;10.53;4.77;;;14.50;53.00;;;;;;5072941;28;20452;-70
2022/04/12 07:19:08;;;;;;;5.63;4.30;;;14.60;52.50;;;;;;5072327;28;20469;-69
2022/04/12 07:21:35;;;;;;;4.87;4.03;;;14.70;52.40;;;;;;5072783;28;20479;-69
2022/04/12 07:24:04;;;;;;;7.53;3.87;;;14.70;52.50;;;;;;5073389;28;20448;-69
2022/04/12 07:26:31;;;;;;;4.00;3.60;;;14.90;52.40;;;;;;5073242;28;20488;-69
2022/04/12 07:28:58;;;;;;;5.30;4.50;;;15.00;52.20;;;;;;5072716;28;20480;-70
2022/04/12 07:31:25;;;;;;;7.23;4.40;;;15.10;52.30;;;;;;5072825;28;20473;-70
2022/04/12 07:33:52;;;;;;;4.70;3.83;;;15.30;51.90;;;;;;5075214;28;20819;-70
2022/04/12 07:36:19;;;;;;;7.00;5.17;;;15.40;51.60;;;;;;5076510;28;20452;-70
2022/04/12 07:38:46;;;;;;;5.93;4.37;;;15.60;51.00;;;;;;5076167;28;20437;-70
2022/04/12 07:41:14;;;;;;;6.33;4.13;;;15.80;50.60;;;;;;5076166;28;20476;-70
2022/04/12 07:43:42;;;;;;;7.33;5.20;;;16.00;50.50;;;;;;5076161;28;20455;-70
2022/04/12 07:46:09;;;;;;;5.20;4.70;;;16.20;50.00;;;;;;5076317;28;20453;-70
2022/04/12 07:48:36;;;;;;;4.87;4.37;;;16.30;49.60;;;;;;5075786;28;21003;-70
2022/04/12 07:51:03;;;;;;;5.50;4.20;;;16.50;49.60;;;;;;5076095;28;20842;-70
2022/04/12 07:53:29;;;;;;;6.10;5.10;;;16.60;49.10;;;;;;5076051;28;20456;-71
2022/04/12 07:55:56;;;;;;;9.27;5.77;;;16.80;49.00;;;;;;5075880;28;20951;-71
2022/04/12 07:58:24;;;;;;;6.43;4.67;;;17.00;48.40;;;;;;5075588;28;20452;-70
2022/04/12 08:00:51;;;;;;;8.63;4.80;;;17.10;47.40;;;;;;5075775;28;20475;-70
2022/04/12 08:03:20;;;;;;;6.90;4.90;;;17.30;47.40;;;;;;5075701;28;20448;-71
2022/04/12 08:05:47;;;;;;;4.93;4.43;;;17.60;47.00;;;;;;5075975;28;20456;-70
2022/04/12 08:08:14;;;;;;;5.80;4.20;;;17.60;46.50;;;;;;5075552;28;20480;-70
2022/04/12 08:10:40;;;;;;;6.63;4.30;;;17.70;46.30;;;;;;5075148;28;20898;-70
2022/04/12 08:13:07;;;;;;;5.00;4.10;;;17.90;46.20;;;;;;5075585;28;20440;-69
2022/04/12 08:15:36;;;;;;;4.77;4.13;;;18.00;46.10;;;;;;5075285;28;20904;-69
2022/04/12 08:18:03;;;;;;;5.03;3.93;;;18.20;46.10;;;;;;5075398;28;20464;-70
2022/04/12 08:20:30;;;;;;;6.73;4.13;;;18.30;45.20;;;;;;5075221;28;20498;-70
2022/04/12 08:22:57;;;;;;;5.03;4.10;;;18.30;45.30;;;;;;5075572;28;20449;-70
2022/04/12 08:25:24;;;;;;;6.00;4.50;;;18.50;45.90;;;;;;5075292;28;20484;-70
2022/04/12 08:27:51;;;;;;;6.20;4.83;;;18.60;45.30;;;;;;5075242;28;20948;-70
2022/04/12 08:30:17;;;;;;;6.00;4.47;;;18.80;45.30;;;;;;5075260;28;20487;-70
2022/04/12 08:32:46;;;;;;;5.90;4.17;;;19.00;45.10;;;;;;5075294;28;20479;-70
2022/04/12 08:35:12;;;;;;;6.57;4.23;;;19.20;44.60;;;;;;5075217;28;20456;-70
2022/04/12 08:37:39;;;;;;;7.63;3.90;;;19.50;44.00;;;;;;5075132;28;20506;-70
2022/04/12 08:40:07;;;;;;;6.63;3.90;;;19.70;43.70;;;;;;5075005;28;20448;-70
2022/04/12 08:42:34;;;;;;;8.10;4.40;;;19.90;43.30;;;;;;5075171;28;20464;-70
2022/04/12 08:45:05;;;;;;;5.37;4.13;;;20.10;43.00;;;;;;5074509;28;20444;-70
2022/04/12 08:47:34;;;;;;;4.50;3.57;;;20.30;42.60;;;;;;5074992;28;20498;-70
2022/04/12 08:50:05;;;;;;;5.77;4.10;;;20.50;42.60;;;;;;5074825;28;20473;-70
2022/04/12 08:52:32;;;;;;;6.47;4.00;;;20.80;42.10;;;;;;5074477;28;20979;-70
2022/04/12 08:55:01;;;;;;;6.47;4.40;;;21.10;42.10;;;;;;5074477;28;20943;-70
2022/04/12 08:57:28;;;;;;;5.10;4.07;;;21.20;39.80;;;;;;5074604;28;20460;-70
2022/04/12 08:59:55;;;;;;;6.00;4.70;;;21.40;40.10;;;;;;5074217;28;20956;-70
2022/04/12 09:02:23;;;;;;;5.37;4.40;;;21.60;40.90;;;;;;5074524;28;20476;-70
2022/04/12 09:04:50;;;;;;;4.90;4.40;;;21.70;39.90;;;;;;5074645;28;20464;-69
2022/04/12 09:07:25;;;;;;;8.53;4.70;;;21.70;39.00;;;;;;5074542;28;20455;-68
2022/04/12 09:09:52;;;;;;;6.53;4.37;;;21.70;39.60;;;;;;5083995;28;20467;-67
2022/04/12 09:12:19;;;;;;;5.30;4.37;;;21.70;39.80;;;;;;5087714;28;20468;-68
2022/04/12 09:14:52;;;;;;;6.90;4.20;;;21.80;40.10;;;;;;5088748;28;20448;-68
2022/04/12 09:17:21;;;;;;;4.77;4.30;;;21.80;39.00;;;;;;5089592;28;20436;-68
2022/04/12 09:19:50;;;;;;;8.47;4.73;;;21.90;39.90;;;;;;5087815;28;20494;-68
2022/04/12 09:22:20;;;;;;;4.70;3.83;;;22.00;39.70;;;;;;5087817;28;20556;-70
2022/04/12 09:24:49;;;;;;;5.30;4.80;;;22.30;38.90;;;;;;5084883;28;20432;-70
2022/04/12 09:27:17;;;;;;;6.53;4.43;;;22.40;38.50;;;;;;5088625;28;20854;-69
2022/04/12 09:29:46;;;;;;;8.90;3.97;;;22.60;37.80;;;;;;5083319;28;20491;-69
2022/04/12 09:32:15;;;;;;;6.20;4.80;;;22.60;37.80;;;;;;5087892;28;20477;-68
2022/04/12 09:34:43;;;;;;;6.10;4.27;;;22.70;37.00;;;;;;5085583;28;20460;-68
2022/04/12 09:37:25;;;;;;;6.80;4.20;;;22.50;37.70;;;;;;5086065;28;20467;-68
2022/04/12 09:40:04;;;;;;;5.60;4.00;;;22.50;38.70;;;;;;5086320;28;20774;-68
2022/04/12 09:42:42;;;;;;;4.80;3.93;;;22.70;39.30;;;;;;5084651;28;20479;-69
2022/04/12 09:45:11;;;;;;;6.80;4.20;;;23.10;38.60;;;;;;5086057;28;20431;-69
2022/04/12 09:47:38;;;;;;;10.00;3.70;;;23.30;37.00;;;;;;5086917;28;20453;-69
2022/04/12 09:50:06;;;;;;;8.00;4.93;;;23.50;37.30;;;;;;5085556;28;20477;-69
2022/04/12 09:52:34;;;;;;;5.43;3.93;;;23.80;36.60;;;;;;5086295;28;20469;-69
2022/04/12 09:55:01;;;;;;;5.93;4.13;;;24.00;36.80;;;;;;5088257;28;20440;-68
2022/04/12 09:57:28;;;;;;;7.53;4.77;;;24.30;36.70;;;;;;5089830;28;20448;-68
2022/04/12 09:59:56;;;;;;;4.93;4.20;;;24.50;36.40;;;;;;5089941;28;20445;-68
2022/04/12 10:02:24;;;;;;;8.93;4.53;;;24.70;33.80;;;;;;5090306;28;20491;-68
2022/04/12 10:04:53;;;;;;;5.20;3.57;;;24.80;34.60;;;;;;5090491;28;20451;-66
2022/04/12 10:07:22;;;;;;;6.60;4.10;;;24.90;34.70;;;;;;5088299;28;20445;-68
2022/04/12 10:09:51;;;;;;;4.30;3.90;;;25.00;34.30;;;;;;5088091;28;20480;-67
2022/04/12 10:12:18;;;;;;;6.60;4.60;;;25.20;34.80;;;;;;5089381;28;20476;-68
2022/04/12 10:14:46;;;;;;;5.77;4.93;;;25.50;34.20;;;;;;5089875;28;20448;-68
2022/04/12 10:17:14;;;;;;;5.50;4.27;;;25.50;32.30;;;;;;5089861;28;20445;-67
2022/04/12 10:19:41;;;;;;;8.53;4.70;;;25.50;32.00;;;;;;5089121;28;20959;-67
2022/04/12 10:22:08;;;;;;;5.07;3.93;;;25.60;33.20;;;;;;5089461;28;20832;-68
2022/04/12 10:24:37;;;;;;;6.20;3.43;;;25.90;33.30;;;;;;5088063;28;20461;-67
2022/04/12 10:27:06;;;;;;;5.73;3.70;;;26.20;31.40;;;;;;5089004;28;20441;-68
2022/04/12 10:29:33;;;;;;;4.67;3.57;;;26.60;31.50;;;;;;5089450;28;20473;-67
2022/04/12 10:32:01;;;;;;;5.93;3.60;;;26.90;29.60;;;;;;5088824;28;20480;-68
2022/04/12 10:34:28;;;;;;;5.90;3.57;;;27.20;30.30;;;;;;5088814;28;20443;-68
2022/04/12 10:37:05;;;;;;;4.33;2.83;;;27.60;29.80;;;;;;5088452;28;20441;-68
2022/04/12 10:39:38;;;;;;;4.37;2.77;;;28.10;29.00;;;;;;5086148;28;20916;-68
2022/04/12 10:42:09;;;;;;;4.27;3.87;;;28.40;28.00;;;;;;5080953;28;20473;-67
2022/04/12 10:44:38;;;;;;;5.40;3.80;;;28.90;28.50;;;;;;5079872;28;20443;-69
2022/04/12 10:47:05;;;;;;;5.87;3.80;;;29.10;27.10;;;;;;5086482;28;20452;-69
2022/04/12 10:49:36;;;;;;;6.23;3.80;;;29.70;27.40;;;;;;5087967;28;20480;-69
2022/04/12 10:52:03;;;;;;;4.07;3.67;;;30.10;25.30;;;;;;5088291;28;20492;-69
2022/04/12 10:54:31;;;;;;;4.67;3.83;;;30.30;25.80;;;;;;5087912;28;20455;-69
2022/04/12 10:57:26;;;;;;;3.60;3.30;;;30.30;25.50;;;;;;5086700;28;20444;-69
2022/04/12 10:59:55;;;;;;;4.43;3.23;;;30.60;25.90;;;;;;5084185;28;20806;-70
2022/04/12 11:02:22;;;;;;;5.40;3.20;;;31.10;25.00;;;;;;5082839;28;20464;-69
2022/04/12 11:04:49;;;;;;;7.00;3.23;;;31.60;25.40;;;;;;5084151;28;20444;-69
2022/04/12 11:07:30;;;;;;;5.80;3.40;;;32.30;25.00;;;;;;5081416;28;20452;-68
2022/04/12 11:10:29;;;;;;;7.80;3.53;;;32.90;23.90;;;;;;5087990;28;20673;-68
2022/04/12 11:13:07;;;;;;;5.93;3.80;;;33.60;23.30;;;;;;5079362;28;20452;-68
2022/04/12 11:15:36;;;;;;;5.63;3.23;;;34.20;23.40;;;;;;5084028;28;20428;-69
2022/04/12 11:18:13;;;;;;;5.90;3.47;;;34.60;22.90;;;;;;5084733;28;20447;-69
2022/04/12 11:20:42;;;;;;;5.17;3.50;;;34.70;22.10;;;;;;5084129;28;20451;-69
2022/04/12 11:23:11;;;;;;;4.83;3.67;;;34.70;22.00;;;;;;5080762;28;20479;-69
2022/04/12 11:25:48;;;;;;;4.47;3.60;;;34.80;22.10;;;;;;5079028;28;20452;-69
2022/04/12 11:28:21;;;;;;;3.90;3.20;;;35.00;22.30;;;;;;5080661;28;20953;-69
2022/04/12 11:30:56;;;;;;;5.57;3.33;;;35.10;22.30;;;;;;5081629;28;20488;-69
2022/04/12 11:33:27;;;;;;;7.03;3.67;;;35.10;21.90;;;;;;5082817;28;20462;-69
2022/04/12 11:35:55;;;;;;;3.83;2.90;;;35.20;21.90;;;;;;5081470;28;20448;-69
2022/04/12 11:38:22;;;;;;;3.67;3.37;;;35.40;21.80;;;;;;5080274;28;20206;-69
2022/04/12 11:40:50;;;;;;;4.20;3.80;;;35.40;21.40;;;;;;5083222;28;20463;-69
2022/04/12 11:43:26;;;;;;;4.60;4.10;;;35.20;20.50;;;;;;5085011;28;20440;-69
2022/04/12 11:45:54;;;;;;;4.63;3.30;;;34.90;21.30;;;;;;5086409;28;20447;-68
2022/04/12 11:48:21;;;;;;;4.17;3.10;;;35.00;21.90;;;;;;5087836;28;20452;-69
2022/04/12 11:50:52;;;;;;;6.97;3.90;;;35.20;20.90;;;;;;5087773;28;20491;-68
2022/04/12 11:53:20;;;;;;;4.20;3.33;;;35.60;20.40;;;;;;5083281;28;20448;-69
2022/04/12 11:55:47;;;;;;;7.50;3.30;;;36.00;20.70;;;;;;5078785;28;20458;-70
2022/04/12 11:58:14;;;;;;;4.50;3.00;;;36.60;21.00;;;;;;5080154;28;20201;-70
2022/04/12 12:00:42;;;;;;;7.63;3.20;;;37.20;20.20;;;;;;5084104;28;20210;-69
2022/04/12 12:03:16;;;;;;;3.33;2.85;;;37.70;18.50;;;;;;5085768;28;20272;-70
2022/04/12 12:05:43;;;;;;;8.35;3.00;;;37.80;17.60;;;;;;5083365;28;20190;-70
2022/04/12 12:08:11;;;;;;;4.75;2.65;;;37.50;18.20;;;;;;5085592;28;20201;-70
2022/04/12 12:10:38;;;;;;;6.00;3.23;;;37.00;19.60;;;;;;5085103;28;20660;-68
2022/04/12 12:13:06;;;;;;;5.33;2.57;;;36.70;20.20;;;;;;5082229;28;20202;-70
2022/04/12 12:15:34;;;;;;;3.10;2.30;;;36.20;20.40;;;;;;5082133;28;20292;-70
2022/04/12 12:18:05;;;;;;;4.97;2.73;;;35.70;20.80;;;;;;5082226;28;20202;-69
2022/04/12 12:20:34;;;;;;;7.70;3.13;;;35.20;21.30;;;;;;5080306;28;20546;-69
2022/04/12 12:23:02;;;;;;;4.93;2.33;;;35.10;21.80;;;;;;5084883;28;20444;-70
2022/04/12 12:25:40;;;;;;;4.77;3.30;;;35.00;21.90;;;;;;5088506;28;20945;-69
2022/04/12 12:28:15;;;;;;;4.67;2.80;;;34.80;21.60;;;;;;5089343;28;20451;-69
2022/04/12 12:30:43;;;;;;;4.97;2.57;;;34.40;22.10;;;;;;5082861;28;20529;-68
2022/04/12 12:33:12;;;;;;;7.00;2.80;;;34.20;22.50;;;;;;5081128;28;20458;-67
2022/04/12 12:35:41;;;;;;;3.37;2.13;;;34.20;22.50;;;;;;5079954;28;20444;-68
2022/04/12 12:38:12;;;;;;;4.07;2.50;;;34.50;22.50;;;;;;5080299;28;20478;-68
2022/04/12 12:40:40;;;;;;;6.87;2.47;;;35.00;22.70;;;;;;5082273;28;20440;-68
2022/04/12 12:43:08;;;;;;;3.23;2.43;;;35.60;20.80;;;;;;5082182;28;20447;-68
2022/04/12 12:45:37;;;;;;;3.27;2.37;;;36.40;21.00;;;;;;5083078;28;20451;-66
2022/04/12 12:48:08;;;;;;;4.43;2.58;;;37.30;20.60;;;;;;5081201;28;20190;-65
2022/04/12 12:50:38;;;;;;;5.20;2.50;;;38.10;19.50;;;;;;5084023;28;20297;-65
2022/04/12 12:53:07;;;;;;;4.05;2.60;;;38.70;18.00;;;;;;5082864;28;20186;-65